createdAt,value
2018-02-21T00:02:01.688Z,-0.30
2018-02-21T00:04:34.463Z,-0.40
2018-02-21T00:07:07.119Z,-0.10
2018-02-21T00:09:39.516Z,-0.30
2018-02-21T00:12:12.801Z,-0.20
2018-02-21T00:14:45.534Z,-0.20
2018-02-21T00:17:17.988Z,-0.20
2018-02-21T00:19:50.435Z,-0.20
2018-02-21T00:22:23.030Z,-0.20
2018-02-21T00:24:55.400Z,-0.20
2018-02-21T00:27:27.772Z,-0.40
2018-02-21T00:30:00.106Z,-0.30
2018-02-21T00:32:33.369Z,-0.30
2018-02-21T00:35:05.818Z,-0.20
2018-02-21T00:37:38.276Z,-0.20
2018-02-21T00:40:10.765Z,-0.30
2018-02-21T00:42:43.958Z,-0.40
2018-02-21T00:45:16.636Z,-0.50
2018-02-21T00:47:50.753Z,-0.20
2018-02-21T00:50:23.618Z,-0.50
2018-02-21T00:52:56.148Z,-0.20
2018-02-21T00:55:28.582Z,-0.10
2018-02-21T00:58:02.023Z,-0.10
2018-02-21T01:00:34.623Z,-0.20
2018-02-21T01:03:07.266Z,-0.30
2018-02-21T01:05:39.689Z,-0.30
2018-02-21T01:08:12.364Z,-0.10
2018-02-21T01:10:45.728Z,-0.20
2018-02-21T01:13:18.235Z,-0.10
2018-02-21T01:15:51.324Z,0.00
2018-02-21T01:18:24.857Z,-0.20
2018-02-21T01:20:58.114Z,0.00
2018-02-21T01:23:30.858Z,0.00
2018-02-21T01:26:03.371Z,-0.20
2018-02-21T01:28:36.585Z,0.00
2018-02-21T01:31:09.957Z,-0.20
2018-02-21T01:33:42.945Z,-0.10
2018-02-21T01:36:15.530Z,-0.30
2018-02-21T01:38:48.736Z,-0.40
2018-02-21T01:41:21.350Z,-0.20
2018-02-21T01:43:53.868Z,-0.10
2018-02-21T01:46:27.446Z,-0.20
2018-02-21T01:49:00.831Z,-0.10
2018-02-21T01:51:33.400Z,-0.30
2018-02-21T01:54:05.895Z,-0.30
2018-02-21T01:56:38.451Z,-0.40
2018-02-21T01:59:11.587Z,-0.10
2018-02-21T02:01:45.552Z,-0.20
2018-02-21T02:04:18.027Z,-0.40
2018-02-21T02:06:51.341Z,0.00
2018-02-21T02:09:24.303Z,-0.20
2018-02-21T02:11:56.788Z,0.00
2018-02-21T02:14:30.141Z,0.10
2018-02-21T02:17:02.937Z,-0.10
2018-02-21T02:19:37.237Z,0.00
2018-02-21T02:22:10.788Z,0.10
2018-02-21T02:24:43.658Z,0.20
2018-02-21T02:27:16.064Z,0.10
2018-02-21T02:29:49.385Z,0.20
2018-02-21T02:32:21.928Z,0.30
2018-02-21T02:34:54.489Z,0.10
2018-02-21T02:37:27.863Z,0.30
2018-02-21T02:40:00.731Z,0.00
2018-02-21T02:42:33.155Z,0.00
2018-02-21T02:45:06.110Z,0.20
2018-02-21T02:47:39.074Z,0.00
2018-02-21T02:50:13.549Z,0.20
2018-02-21T02:52:46.128Z,-0.10
2018-02-21T02:55:18.656Z,0.20
2018-02-21T02:57:51.182Z,0.10
2018-02-21T03:00:23.573Z,0.10
2018-02-21T03:02:56.883Z,0.20
2018-02-21T03:05:29.566Z,0.10
2018-02-21T03:08:02.955Z,0.00
2018-02-21T03:10:35.483Z,0.00
2018-02-21T03:13:08.674Z,0.20
2018-02-21T03:15:41.652Z,0.00
2018-02-21T03:18:15.298Z,0.00
2018-02-21T03:20:48.133Z,0.00
2018-02-21T03:23:21.343Z,0.10
2018-02-21T03:25:54.800Z,-0.10
2018-02-21T03:28:27.311Z,-0.10
2018-02-21T03:30:59.676Z,0.20
2018-02-21T03:33:32.871Z,0.00
2018-02-21T03:36:06.218Z,0.00
2018-02-21T03:38:39.432Z,0.20
2018-02-21T03:41:12.084Z,0.00
2018-02-21T03:43:45.560Z,0.10
2018-02-21T03:46:18.170Z,0.00
2018-02-21T03:48:51.109Z,0.00
2018-02-21T03:51:24.119Z,0.10
2018-02-21T03:53:56.712Z,-0.10
2018-02-21T03:56:30.100Z,0.00
2018-02-21T03:59:02.879Z,0.00
2018-02-21T04:01:35.433Z,0.00
2018-02-21T04:04:07.850Z,-0.20
2018-02-21T04:06:41.028Z,0.20
2018-02-21T04:09:14.615Z,0.00
2018-02-21T04:11:47.279Z,0.10
2018-02-21T04:14:19.840Z,0.10
2018-02-21T04:16:52.436Z,-0.10
2018-02-21T04:19:24.834Z,0.00
2018-02-21T04:21:57.892Z,-0.20
2018-02-21T04:24:30.611Z,-0.40
2018-02-21T04:27:03.677Z,-0.20
2018-02-21T04:29:37.119Z,-0.30
2018-02-21T04:32:09.819Z,-0.40
2018-02-21T04:34:43.274Z,-0.30
2018-02-21T04:37:15.810Z,-0.30
2018-02-21T04:39:49.118Z,-0.20
2018-02-21T04:42:21.973Z,-0.40
2018-02-21T04:44:54.424Z,-0.20
2018-02-21T04:47:27.836Z,-0.10
2018-02-21T04:50:01.148Z,-0.40
2018-02-21T04:52:33.544Z,-0.20
2018-02-21T04:55:10.891Z,-0.30
2018-02-21T04:57:48.481Z,-0.20
2018-02-21T05:00:23.922Z,-0.40
2018-02-21T05:02:57.853Z,-0.20
2018-02-21T05:05:31.296Z,-0.10
2018-02-21T05:08:04.168Z,-0.30
2018-02-21T05:10:36.877Z,-0.40
2018-02-21T05:13:10.046Z,-0.40
2018-02-21T05:15:42.535Z,-0.30
2018-02-21T05:18:16.098Z,0.00
2018-02-21T05:20:48.436Z,-0.30
2018-02-21T05:23:20.984Z,-0.40
2018-02-21T05:25:54.292Z,-0.10
2018-02-21T05:28:26.869Z,-0.50
2018-02-21T05:30:59.306Z,-0.50
2018-02-21T05:33:31.920Z,-0.20
2018-02-21T05:36:06.140Z,-0.40
2018-02-21T05:38:39.518Z,-0.50
2018-02-21T05:41:13.038Z,-0.70
2018-02-21T05:43:46.758Z,-0.50
2018-02-21T05:46:19.442Z,-0.50
2018-02-21T05:48:52.044Z,-0.70
2018-02-21T05:51:25.395Z,-0.70
2018-02-21T05:53:57.914Z,-0.70
2018-02-21T05:56:31.109Z,-0.90
2018-02-21T05:59:04.064Z,-0.90
2018-02-21T06:01:37.336Z,-0.60
2018-02-21T06:04:09.918Z,-0.70
2018-02-21T06:06:43.902Z,-0.70
2018-02-21T06:09:17.608Z,-0.70
2018-02-21T06:11:50.338Z,-0.70
2018-02-21T06:14:22.852Z,-0.70
2018-02-21T06:16:56.995Z,-0.70
2018-02-21T06:19:31.193Z,-0.70
2018-02-21T06:22:04.860Z,-0.70
2018-02-21T06:24:38.316Z,-0.70
2018-02-21T06:27:10.910Z,-0.70
2018-02-21T06:29:43.299Z,-0.60
2018-02-21T06:32:15.750Z,-0.90
2018-02-21T06:34:48.093Z,-0.90
2018-02-21T06:37:20.463Z,-0.90
2018-02-21T06:39:53.762Z,-0.80
2018-02-21T06:42:26.392Z,-0.80
2018-02-21T06:44:59.813Z,-0.90
2018-02-21T06:47:32.443Z,-0.90
2018-02-21T06:50:04.981Z,-0.90
2018-02-21T06:52:37.390Z,-0.70
2018-02-21T06:55:10.623Z,-1.00
2018-02-21T06:57:43.212Z,-0.70
2018-02-21T07:00:15.987Z,-0.80
2018-02-21T07:02:48.509Z,-0.90
2018-02-21T07:05:20.969Z,-0.70
2018-02-21T07:07:54.278Z,-0.70
2018-02-21T07:10:27.652Z,-0.40
2018-02-21T07:13:02.099Z,-0.30
2018-02-21T07:15:35.728Z,-0.30
2018-02-21T07:18:08.655Z,-0.40
2018-02-21T07:20:41.340Z,-0.20
2018-02-21T07:23:14.607Z,-0.10
2018-02-21T07:25:47.922Z,0.10
2018-02-21T07:28:20.840Z,-0.10
2018-02-21T07:30:54.216Z,-0.20
2018-02-21T07:33:27.481Z,0.00
2018-02-21T07:36:00.857Z,-0.10
2018-02-21T07:38:34.407Z,-0.10
2018-02-21T07:41:07.156Z,-0.20
2018-02-21T07:43:39.612Z,-0.40
2018-02-21T07:46:12.032Z,-0.50
2018-02-21T07:48:44.579Z,-0.40
2018-02-21T07:51:17.283Z,-0.50
2018-02-21T07:53:56.621Z,-0.40
2018-02-21T07:56:30.150Z,-0.60
2018-02-21T07:59:03.514Z,-0.40
2018-02-21T08:01:36.390Z,-0.50
2018-02-21T08:04:08.847Z,-0.50
2018-02-21T08:06:42.266Z,-0.60
2018-02-21T08:09:15.501Z,-0.50
2018-02-21T08:11:48.995Z,-0.60
2018-02-21T08:14:21.643Z,-0.70
2018-02-21T08:16:54.192Z,-0.60
2018-02-21T08:19:27.594Z,-0.40
2018-02-21T08:22:01.750Z,-0.50
2018-02-21T08:24:34.386Z,-0.60
2018-02-21T08:27:06.774Z,-0.50
2018-02-21T08:29:39.277Z,-0.50
2018-02-21T08:32:11.842Z,-0.50
2018-02-21T08:34:45.841Z,-0.40
2018-02-21T08:37:19.628Z,-0.30
2018-02-21T08:39:52.270Z,-0.30
2018-02-21T08:42:25.536Z,-0.10
2018-02-21T08:44:58.214Z,-0.10
2018-02-21T08:47:30.699Z,-0.10
2018-02-21T08:50:04.442Z,-0.10
2018-02-21T08:52:37.640Z,-0.30
2018-02-21T08:55:10.727Z,-0.10
2018-02-21T08:57:44.041Z,0.10
2018-02-21T09:00:17.623Z,-0.10
2018-02-21T09:02:50.373Z,-0.20
2018-02-21T09:05:24.234Z,0.10
2018-02-21T09:07:57.914Z,0.10
2018-02-21T09:10:30.592Z,0.10
2018-02-21T09:13:03.954Z,0.30
2018-02-21T09:15:36.316Z,0.40
2018-02-21T09:18:08.827Z,0.50
2018-02-21T09:20:41.336Z,0.50
2018-02-21T09:23:13.748Z,0.60
2018-02-21T09:25:47.060Z,0.30
2018-02-21T09:28:19.790Z,0.20
2018-02-21T09:30:53.068Z,0.40
2018-02-21T09:33:26.387Z,0.30
2018-02-21T09:35:59.521Z,0.20
2018-02-21T09:38:32.170Z,0.20
2018-02-21T09:41:04.686Z,0.40
2018-02-21T09:43:37.129Z,0.40
2018-02-21T09:46:10.330Z,0.40
2018-02-21T09:48:45.095Z,0.60
2018-02-21T09:51:17.556Z,0.50
2018-02-21T09:53:51.014Z,0.80
2018-02-21T09:56:25.221Z,0.80
2018-02-21T09:58:58.198Z,0.70
2018-02-21T10:01:30.628Z,1.00
2018-02-21T10:04:03.367Z,1.30
2018-02-21T10:06:36.697Z,1.60
2018-02-21T10:09:09.897Z,2.20
2018-02-21T10:11:42.495Z,2.00
2018-02-21T10:14:15.883Z,2.60
2018-02-21T10:16:48.332Z,3.10
2018-02-21T10:19:20.728Z,3.30
2018-02-21T10:21:54.279Z,3.40
2018-02-21T10:24:27.688Z,3.40
2018-02-21T10:27:00.085Z,3.70
2018-02-21T10:29:33.352Z,4.10
2018-02-21T10:32:06.077Z,4.10
2018-02-21T10:34:39.459Z,4.20
2018-02-21T10:37:12.796Z,4.30
2018-02-21T10:39:45.789Z,4.30
2018-02-21T10:42:19.113Z,4.50
2018-02-21T10:44:51.619Z,4.40
2018-02-21T10:47:24.044Z,4.40
2018-02-21T10:49:58.156Z,4.10
2018-02-21T10:52:30.941Z,4.10
2018-02-21T10:55:03.607Z,4.10
2018-02-21T10:57:36.204Z,4.30
2018-02-21T11:00:09.547Z,4.40
2018-02-21T11:02:42.382Z,4.40
2018-02-21T11:05:15.390Z,4.40
2018-02-21T11:07:47.924Z,4.40
2018-02-21T11:10:21.304Z,4.20
2018-02-21T11:12:54.116Z,4.20
2018-02-21T11:15:26.633Z,4.20
2018-02-21T11:17:59.987Z,4.10
2018-02-21T11:20:33.112Z,3.70
2018-02-21T11:23:05.923Z,3.70
2018-02-21T11:25:39.378Z,3.50
2018-02-21T11:28:13.096Z,3.40
2018-02-21T11:30:46.442Z,3.30
2018-02-21T11:33:18.843Z,3.30
2018-02-21T11:35:51.236Z,3.30
2018-02-21T11:38:24.705Z,3.30
2018-02-21T11:40:57.132Z,3.40
2018-02-21T11:43:29.594Z,3.50
2018-02-21T11:46:02.024Z,3.50
2018-02-21T11:48:34.491Z,3.50
2018-02-21T11:51:07.734Z,3.40
2018-02-21T11:53:40.403Z,3.30
2018-02-21T11:56:14.087Z,3.20
2018-02-21T11:58:47.486Z,3.10
2018-02-21T12:01:20.656Z,3.00
2018-02-21T12:03:53.386Z,3.00
2018-02-21T12:06:26.660Z,3.00
2018-02-21T12:08:59.091Z,3.00
2018-02-21T12:11:32.236Z,3.00
2018-02-21T12:14:04.997Z,2.90
2018-02-21T12:16:37.394Z,2.90
2018-02-21T12:19:11.344Z,2.80
2018-02-21T12:21:44.039Z,2.80
2018-02-21T12:24:17.362Z,2.80
2018-02-21T12:26:50.726Z,2.80
2018-02-21T12:29:25.068Z,2.60
2018-02-21T12:31:57.767Z,2.60
2018-02-21T12:34:31.068Z,2.50
2018-02-21T12:37:03.670Z,2.50
2018-02-21T12:39:36.938Z,2.40
2018-02-21T12:42:10.303Z,2.40
2018-02-21T12:44:44.482Z,2.20
2018-02-21T12:47:17.908Z,2.10
2018-02-21T12:49:50.711Z,2.10
2018-02-21T12:52:23.292Z,1.90
2018-02-21T12:54:55.719Z,1.90
2018-02-21T12:57:28.286Z,2.00
2018-02-21T13:00:00.891Z,1.90
2018-02-21T13:02:33.345Z,1.80
2018-02-21T13:05:05.858Z,1.90
2018-02-21T13:07:39.124Z,1.90
2018-02-21T13:10:12.793Z,1.90
2018-02-21T13:12:46.330Z,1.90
2018-02-21T13:15:19.023Z,2.10
2018-02-21T13:17:53.088Z,2.00
2018-02-21T13:20:25.946Z,2.00
2018-02-21T13:22:59.173Z,2.00
2018-02-21T13:25:32.088Z,2.10
2018-02-21T13:28:04.574Z,2.00
2018-02-21T13:30:37.879Z,1.90
2018-02-21T13:33:10.634Z,2.00
2018-02-21T13:35:43.090Z,2.20
2018-02-21T13:38:16.492Z,2.10
2018-02-21T13:40:49.824Z,2.40
2018-02-21T13:43:22.466Z,2.50
2018-02-21T13:45:54.921Z,2.40
2018-02-21T13:48:27.770Z,2.40
2018-02-21T13:51:01.011Z,2.50
2018-02-21T13:53:34.266Z,2.50
2018-02-21T13:56:06.982Z,2.50
2018-02-21T13:58:39.485Z,2.50
2018-02-21T14:01:12.818Z,2.50
2018-02-21T14:03:45.290Z,2.50
2018-02-21T14:06:17.855Z,2.50
2018-02-21T14:08:51.244Z,2.50
2018-02-21T14:11:24.615Z,2.40
2018-02-21T14:13:58.076Z,2.40
2018-02-21T14:16:30.770Z,2.50
2018-02-21T14:19:04.346Z,2.30
2018-02-21T14:21:37.635Z,2.20
2018-02-21T14:24:10.977Z,2.20
2018-02-21T14:26:44.479Z,2.40
2018-02-21T14:29:17.256Z,2.20
2018-02-21T14:31:49.716Z,2.10
2018-02-21T14:34:23.043Z,2.20
2018-02-21T14:36:56.553Z,2.10
2018-02-21T14:39:29.197Z,2.10
2018-02-21T14:42:01.749Z,2.10
2018-02-21T14:44:34.254Z,2.20
2018-02-21T14:47:07.601Z,2.10
2018-02-21T14:49:40.950Z,2.20
2018-02-21T14:52:15.083Z,2.50
2018-02-21T14:54:47.952Z,2.40
2018-02-21T14:57:21.285Z,2.60
2018-02-21T14:59:53.899Z,2.30
2018-02-21T15:02:27.301Z,2.20
2018-02-21T15:04:59.803Z,2.40
2018-02-21T15:07:32.362Z,2.20
2018-02-21T15:10:05.666Z,2.20
2018-02-21T15:12:38.456Z,2.10
2018-02-21T15:15:10.964Z,2.10
2018-02-21T15:17:45.098Z,2.10
2018-02-21T15:20:18.534Z,2.00
2018-02-21T15:22:51.381Z,2.10
2018-02-21T15:25:23.889Z,1.90
2018-02-21T15:27:56.260Z,1.70
2018-02-21T15:30:29.532Z,1.60
2018-02-21T15:33:02.715Z,1.70
2018-02-21T15:35:35.119Z,1.80
2018-02-21T15:38:08.338Z,1.90
2018-02-21T15:40:41.226Z,1.90
2018-02-21T15:43:13.637Z,1.80
2018-02-21T15:45:46.539Z,1.70
2018-02-21T15:48:19.000Z,1.90
2018-02-21T15:50:51.450Z,1.70
2018-02-21T15:53:23.925Z,1.60
2018-02-21T15:55:57.159Z,1.70
2018-02-21T15:58:30.003Z,1.70
2018-02-21T16:01:03.347Z,1.50
2018-02-21T16:03:35.661Z,1.60
2018-02-21T16:06:09.123Z,1.50
2018-02-21T16:08:43.253Z,1.70
2018-02-21T16:11:16.910Z,1.70
2018-02-21T16:13:50.291Z,1.60
2018-02-21T16:16:23.894Z,1.70
2018-02-21T16:18:57.265Z,1.60
2018-02-21T16:21:29.910Z,1.40
2018-02-21T16:24:02.404Z,1.50
2018-02-21T16:26:34.914Z,1.60
2018-02-21T16:29:07.378Z,1.60
2018-02-21T16:31:40.683Z,1.50
2018-02-21T16:34:13.397Z,1.50
2018-02-21T16:36:47.583Z,1.50
2018-02-21T16:39:20.170Z,1.40
2018-02-21T16:41:53.396Z,1.40
2018-02-21T16:44:26.105Z,1.50
2018-02-21T16:47:00.208Z,1.30
2018-02-21T16:49:33.180Z,1.50
2018-02-21T16:52:07.141Z,1.50
2018-02-21T16:54:40.974Z,1.40
2018-02-21T16:57:14.690Z,1.40
2018-02-21T16:59:47.475Z,1.50
2018-02-21T17:02:20.028Z,1.50
2018-02-21T17:04:52.601Z,1.40
2018-02-21T17:07:25.090Z,1.50
2018-02-21T17:09:57.606Z,1.50
2018-02-21T17:12:31.739Z,1.40
2018-02-21T17:15:04.457Z,1.50
2018-02-21T17:17:37.045Z,1.40
2018-02-21T17:20:10.274Z,1.40
2018-02-21T17:22:42.688Z,1.60
2018-02-21T17:25:15.123Z,1.40
2018-02-21T17:27:48.547Z,1.40
2018-02-21T17:30:20.985Z,1.50
2018-02-21T17:32:53.400Z,1.60
2018-02-21T17:35:25.806Z,1.70
2018-02-21T17:37:59.212Z,1.50
2018-02-21T17:40:32.723Z,1.40
2018-02-21T17:43:05.476Z,1.60
2018-02-21T17:45:37.861Z,1.60
2018-02-21T17:48:10.475Z,1.40
2018-02-21T17:50:42.950Z,1.50
2018-02-21T17:53:16.381Z,1.50
2018-02-21T17:55:49.788Z,1.30
2018-02-21T17:58:22.349Z,1.40
2018-02-21T18:00:54.895Z,1.50
2018-02-21T18:03:27.366Z,1.60
2018-02-21T18:06:01.418Z,1.60
2018-02-21T18:08:35.106Z,1.30
2018-02-21T18:11:07.926Z,1.20
2018-02-21T18:13:41.414Z,1.40
2018-02-21T18:16:14.064Z,1.40
2018-02-21T18:18:46.578Z,1.50
2018-02-21T18:24:20.629Z,1.40
2018-02-21T18:26:53.528Z,1.20
2018-02-21T18:29:27.280Z,1.20
2018-02-21T18:32:00.479Z,1.40
2018-02-21T18:34:32.851Z,1.20
2018-02-21T18:37:06.998Z,1.30
2018-02-21T18:39:39.776Z,1.30
2018-02-21T18:42:13.089Z,1.20
2018-02-21T18:44:45.960Z,1.20
2018-02-21T18:47:20.080Z,1.20
2018-02-21T18:49:52.700Z,1.30
2018-02-21T18:52:25.878Z,1.30
2018-02-21T18:54:58.845Z,1.10
2018-02-21T18:57:32.956Z,1.40
2018-02-21T19:00:05.670Z,1.40
2018-02-21T19:02:37.978Z,1.40
2018-02-21T19:05:11.092Z,1.40
2018-02-21T19:07:43.955Z,1.20
2018-02-21T19:10:17.795Z,1.30
2018-02-21T19:12:51.224Z,1.10
2018-02-21T19:15:28.689Z,1.30
2018-02-21T19:18:02.496Z,1.40
2018-02-21T19:20:36.558Z,1.20
2018-02-21T19:23:08.982Z,1.20
2018-02-21T19:25:42.172Z,1.20
2018-02-21T19:28:14.685Z,1.00
2018-02-21T19:30:48.044Z,1.10
2018-02-21T19:33:22.049Z,0.90
2018-02-21T19:35:54.662Z,1.10
2018-02-21T19:38:27.452Z,1.20
2018-02-21T19:41:00.195Z,0.90
2018-02-21T19:43:32.763Z,1.00
2018-02-21T19:46:05.472Z,0.80
2018-02-21T19:48:39.825Z,1.00
2018-02-21T19:51:12.847Z,0.80
2018-02-21T19:53:45.350Z,0.80
2018-02-21T19:56:18.726Z,0.70
2018-02-21T19:58:51.540Z,0.90
2018-02-21T20:01:24.279Z,0.80
2018-02-21T20:03:58.486Z,0.90
2018-02-21T20:06:31.332Z,0.70
2018-02-21T20:09:05.930Z,0.70
2018-02-21T20:11:40.172Z,0.70
2018-02-21T20:14:12.960Z,0.70
2018-02-21T20:16:46.480Z,1.00
2018-02-21T20:19:18.861Z,0.90
2018-02-21T20:21:51.579Z,0.80
2018-02-21T20:24:25.228Z,0.70
2018-02-21T20:26:58.942Z,0.70
2018-02-21T20:29:33.076Z,0.60
2018-02-21T20:32:06.171Z,0.60
2018-02-21T20:34:50.597Z,0.70
2018-02-21T20:37:23.325Z,0.70
2018-02-21T20:39:55.928Z,0.60
2018-02-21T20:42:28.744Z,0.60
2018-02-21T20:45:01.945Z,0.80
2018-02-21T20:47:36.242Z,0.80
2018-02-21T20:50:10.143Z,0.70
2018-02-21T20:52:43.175Z,0.70
2018-02-21T20:55:21.920Z,0.70
2018-02-21T20:57:55.273Z,0.70
2018-02-21T21:00:28.109Z,0.60
2018-02-21T21:03:01.547Z,0.70
2018-02-21T21:05:36.974Z,0.50
2018-02-21T21:08:09.480Z,0.70
2018-02-21T21:10:42.202Z,0.50
2018-02-21T21:13:15.558Z,0.40
2018-02-21T21:15:51.929Z,0.30
2018-02-21T21:18:25.374Z,0.40
2018-02-21T21:20:58.645Z,0.20
2018-02-21T21:23:37.048Z,0.20
2018-02-21T21:26:09.780Z,0.20
2018-02-21T21:28:43.794Z,0.30
2018-02-21T21:31:16.550Z,0.30
2018-02-21T21:33:52.204Z,0.00
2018-02-21T21:36:24.673Z,0.10
2018-02-21T21:38:59.204Z,0.20
2018-02-21T21:41:31.606Z,0.10
2018-02-21T21:44:03.985Z,0.10
2018-02-21T21:46:36.488Z,0.00
2018-02-21T21:49:10.187Z,-0.10
2018-02-21T21:51:43.430Z,0.00
2018-02-21T21:54:16.166Z,0.00
2018-02-21T21:56:48.720Z,-0.10
2018-02-21T21:59:21.366Z,0.00
2018-02-21T22:01:53.994Z,-0.20
2018-02-21T22:04:27.064Z,0.00
2018-02-21T22:06:59.633Z,-0.30
2018-02-21T22:09:32.947Z,-0.10
2018-02-21T22:12:07.091Z,-0.10
2018-02-21T22:14:40.026Z,-0.40
2018-02-21T22:17:13.666Z,-0.30
2018-02-21T22:19:46.561Z,-0.30
2018-02-21T22:22:19.766Z,-0.20
2018-02-21T22:24:52.610Z,-0.20
2018-02-21T22:27:25.354Z,-0.30
2018-02-21T22:29:57.972Z,-0.20
2018-02-21T22:32:30.580Z,-0.20
2018-02-21T22:35:03.203Z,-0.40
2018-02-21T22:37:36.648Z,-0.20
2018-02-21T22:40:09.482Z,-0.20
2018-02-21T22:42:42.731Z,-0.20
2018-02-21T22:45:16.246Z,-0.20
2018-02-21T22:47:49.695Z,-0.40
2018-02-21T22:50:22.609Z,-0.30
2018-02-21T22:52:54.998Z,-0.50
2018-02-21T22:55:28.904Z,-0.40
2018-02-21T22:58:01.520Z,-0.40
2018-02-21T23:00:34.074Z,-0.60
2018-02-21T23:03:06.734Z,-0.50
2018-02-21T23:05:39.399Z,-0.60
2018-02-21T23:08:12.053Z,-0.70
2018-02-21T23:10:44.768Z,-0.90
2018-02-21T23:13:17.579Z,-0.80
2018-02-21T23:15:51.258Z,-1.00
2018-02-21T23:18:23.862Z,-1.10
2018-02-21T23:20:57.132Z,-1.10
2018-02-21T23:23:30.980Z,-1.00
2018-02-21T23:26:05.015Z,-1.20
2018-02-21T23:28:38.128Z,-1.10
2018-02-21T23:31:10.715Z,-1.00
2018-02-21T23:33:44.131Z,-1.30
2018-02-21T23:36:17.752Z,-1.10
2018-02-21T23:38:51.891Z,-1.40
2018-02-21T23:41:25.119Z,-1.10
2018-02-21T23:43:57.774Z,-1.40
2018-02-21T23:46:31.299Z,-1.20
2018-02-21T23:49:04.127Z,-1.30
2018-02-21T23:51:36.864Z,-1.50
2018-02-21T23:54:10.787Z,-1.50
2018-02-21T23:56:44.500Z,-1.60
2018-02-21T23:59:18.259Z,-1.60
